createdAt,value
2022-12-03T01:19:37.805Z,45.70
2022-12-03T02:10:34.654Z,42.67
2022-12-03T02:33:52.693Z,31.93
2022-12-03T02:51:06.601Z,29.27
2022-12-03T03:15:29.311Z,32.60
2022-12-03T03:26:56.365Z,27.70
2022-12-03T03:44:40.283Z,28.10
2022-12-03T03:56:55.792Z,33.70
2022-12-03T04:02:38.240Z,30.10
2022-12-03T04:20:33.011Z,30.47
2022-12-03T04:42:49.706Z,35.67
2022-12-03T04:48:41.915Z,32.70
2022-12-03T04:54:35.576Z,27.33
2022-12-03T05:18:32.486Z,32.47
2022-12-03T05:30:25.958Z,34.37
2022-12-03T05:35:54.259Z,37.97
2022-12-03T06:29:55.727Z,36.77
2022-12-03T06:48:46.922Z,41.10
2022-12-03T08:16:47.918Z,38.60
2022-12-03T08:22:47.696Z,40.17
2022-12-03T08:47:43.386Z,38.67
2022-12-03T08:58:41.197Z,40.27
2022-12-03T09:10:52.649Z,35.20
2022-12-03T10:00:38.853Z,39.90
2022-12-03T10:06:42.379Z,38.83
2022-12-03T10:12:58.747Z,34.47
2022-12-03T10:24:42.917Z,36.47
2022-12-03T10:36:50.675Z,38.93
2022-12-03T11:01:23.693Z,36.43
2022-12-03T11:06:25.737Z,33.10
2022-12-03T11:11:29.886Z,36.30
2022-12-03T11:16:49.801Z,30.90
2022-12-03T11:22:08.722Z,31.60
2022-12-03T11:27:10.473Z,33.00
2022-12-03T11:32:38.267Z,32.77
2022-12-03T11:37:40.237Z,31.77
2022-12-03T11:42:48.282Z,36.27
2022-12-03T11:48:04.441Z,36.27
2022-12-03T11:53:23.344Z,34.43
2022-12-03T11:58:29.389Z,36.40
2022-12-03T12:03:34.083Z,33.93
2022-12-03T12:09:06.042Z,35.03
2022-12-03T12:14:12.440Z,30.57
2022-12-03T12:19:37.215Z,30.30
2022-12-03T12:24:47.948Z,39.90
2022-12-03T12:29:57.655Z,32.47
2022-12-03T12:35:25.584Z,27.20
2022-12-03T12:40:40.070Z,29.53
2022-12-03T12:45:43.241Z,26.43
2022-12-03T12:50:51.808Z,25.90
2022-12-03T12:56:20.412Z,26.60
2022-12-03T13:01:29.533Z,25.73
2022-12-03T13:06:31.975Z,26.90
2022-12-03T13:11:38.760Z,31.97
2022-12-03T13:16:40.824Z,28.03
2022-12-03T13:21:48.216Z,33.20
2022-12-03T13:27:16.146Z,27.47
2022-12-03T13:32:23.303Z,26.77
2022-12-03T13:37:28.371Z,32.97
2022-12-03T13:42:40.932Z,37.47
2022-12-03T13:47:48.318Z,29.77
2022-12-03T13:52:53.146Z,33.70
2022-12-03T13:57:55.284Z,34.77
2022-12-03T14:03:02.231Z,36.13
2022-12-03T14:08:12.433Z,31.40
2022-12-03T14:13:25.021Z,35.53
2022-12-03T14:18:29.545Z,36.23
2022-12-03T14:23:31.336Z,37.37
2022-12-03T14:28:33.102Z,33.73
2022-12-03T14:33:34.841Z,35.67
2022-12-03T14:38:39.978Z,37.67
2022-12-03T14:43:44.547Z,33.03
2022-12-03T14:48:46.400Z,42.13
2022-12-03T16:34:49.586Z,55.73
2022-12-03T16:39:51.252Z,39.17
2022-12-03T16:45:08.222Z,44.17
2022-12-03T16:50:14.561Z,49.50
2022-12-03T16:55:19.860Z,44.07
2022-12-03T17:00:22.009Z,51.03
2022-12-03T17:05:28.405Z,41.50
2022-12-03T17:15:51.514Z,46.67
2022-12-03T17:28:37.529Z,45.77
2022-12-03T18:29:46.813Z,53.27
2022-12-03T18:34:48.785Z,46.97
2022-12-03T18:39:50.471Z,50.07
2022-12-03T18:44:54.057Z,45.17
2022-12-03T18:49:56.713Z,54.20
2022-12-03T18:55:14.497Z,46.13
2022-12-03T19:00:18.477Z,51.53
2022-12-03T19:05:30.305Z,50.40
2022-12-03T19:10:33.352Z,47.63
2022-12-03T19:15:44.494Z,49.60
2022-12-03T19:20:51.832Z,48.97
2022-12-03T20:16:51.330Z,60.37
2022-12-03T20:33:17.783Z,59.07
2022-12-03T20:38:20.020Z,61.57
2022-12-03T21:15:05.041Z,57.60
2022-12-03T21:20:21.256Z,62.57
2022-12-03T21:25:23.311Z,55.83
2022-12-03T21:30:25.260Z,55.67
2022-12-03T21:35:29.742Z,57.30
2022-12-03T21:47:09.219Z,57.20
2022-12-03T21:52:57.667Z,57.67
2022-12-03T21:57:59.590Z,61.03
2022-12-03T22:09:49.449Z,61.60
2022-12-03T22:16:00.740Z,58.70
2022-12-03T22:21:56.245Z,51.30
2022-12-03T22:28:00.628Z,50.90
2022-12-03T22:33:41.250Z,55.20
2022-12-03T22:40:03.988Z,51.53
2022-12-03T22:51:33.365Z,61.23
2022-12-03T22:56:35.343Z,48.90
2022-12-03T23:02:00.542Z,51.27
2022-12-03T23:07:03.615Z,49.37
2022-12-03T23:12:56.898Z,58.67
2022-12-03T23:17:59.153Z,50.63
2022-12-03T23:41:38.132Z,45.27
2022-12-03T23:46:41.454Z,46.83
2022-12-03T23:51:47.535Z,44.67
2022-12-03T23:57:21.123Z,51.77
